Time;durP1;ratioP1;P1;durP2;ratioP2;P2;SDS_P1;SDS_P2;PMS_P1;PMS_P2;Temp;Humidity;BMP_temperature;BMP_pressure;BME280_temperature;BME280_humidity;BME280_pressure;Samples;Min_cycle;Max_cycle;Signal;HPM_P1;HPM_P2
2021/07/23 00:00:47;;;;;;;18.45;13.75;;;;;;;;;;5094348;28;20160;-69
2021/07/23 00:03:13;;;;;;;15.02;13.15;;;;;;;;;;5092611;28;20060;-70
2021/07/23 00:05:38;;;;;;;15.13;12.98;;;;;;;;;;5094197;28;20073;-69
2021/07/23 00:08:03;;;;;;;16.38;12.98;;;;;;;;;;5094099;28;20209;-70
2021/07/23 00:10:28;;;;;;;15.60;13.20;;;;;;;;;;5094986;28;20111;-69
2021/07/23 00:12:53;;;;;;;18.00;13.15;;;;;;;;;;5094228;28;20494;-70
2021/07/23 00:15:19;;;;;;;15.48;12.90;;;;;;;;;;5091862;28;20023;-70
2021/07/23 00:17:44;;;;;;;18.05;12.63;;;;;;;;;;5094346;28;20039;-70
2021/07/23 00:20:09;;;;;;;14.32;12.23;;;;;;;;;;5094462;28;20047;-70
2021/07/23 00:22:35;;;;;;;14.95;12.63;;;;;;;;;;5094271;28;20112;-70
2021/07/23 00:25:00;;;;;;;13.75;11.65;;;;;;;;;;5091454;28;20076;-69
2021/07/23 00:27:25;;;;;;;15.20;12.60;;;;;;;;;;5093935;28;20016;-71
2021/07/23 00:29:51;;;;;;;15.70;13.02;;;;;;;;;;5094560;28;20093;-71
2021/07/23 00:32:16;;;;;;;15.52;13.25;;;;;;;;;;5093458;28;20036;-70
2021/07/23 00:34:41;;;;;;;15.32;13.05;;;;;;;;;;5091614;28;20099;-71
2021/07/23 00:37:06;;;;;;;15.25;12.45;;;;;;;;;;5093805;28;20024;-70
2021/07/23 00:39:32;;;;;;;17.00;12.98;;;;;;;;;;5093932;28;20013;-71
2021/07/23 00:41:57;;;;;;;17.10;13.20;;;;;;;;;;5094076;28;20016;-69
2021/07/23 00:44:22;;;;;;;15.07;13.32;;;;;;;;;;5099417;28;20027;-70
2021/07/23 00:46:47;;;;;;;16.35;13.20;;;;;;;;;;5103711;28;20059;-69
2021/07/23 00:49:13;;;;;;;18.15;14.00;;;;;;;;;;5093671;28;20039;-69
2021/07/23 00:51:39;;;;;;;17.95;15.00;;;;;;;;;;5093812;28;20024;-69
2021/07/23 00:54:04;;;;;;;16.63;13.93;;;;;;;;;;5090473;28;20116;-69
2021/07/23 00:56:31;;;;;;;21.27;16.52;;;;;;;;;;5093260;28;20116;-69
2021/07/23 00:58:57;;;;;;;20.13;16.38;;;;;;;;;;5092468;28;20105;-70
2021/07/23 01:01:23;;;;;;;20.33;16.35;;;;;;;;;;5093514;28;20036;-70
2021/07/23 01:03:49;;;;;;;22.48;18.35;;;;;;;;;;5089325;28;20471;-69
2021/07/23 01:06:14;;;;;;;22.52;18.38;;;;;;;;;;5093386;28;20169;-70
2021/07/23 01:08:40;;;;;;;21.85;17.05;;;;;;;;;;5093718;28;20019;-72
2021/07/23 01:11:05;;;;;;;23.40;18.02;;;;;;;;;;5093414;28;20379;-69
2021/07/23 01:13:30;;;;;;;22.83;17.35;;;;;;;;;;5090210;28;20038;-69
2021/07/23 01:15:55;;;;;;;21.23;16.95;;;;;;;;;;5093643;28;20046;-70
2021/07/23 01:18:21;;;;;;;19.08;16.52;;;;;;;;;;5092738;28;20016;-69
2021/07/23 01:20:47;;;;;;;20.95;16.63;;;;;;;;;;5093182;28;20027;-69
2021/07/23 01:23:13;;;;;;;21.40;16.90;;;;;;;;;;5091084;28;20125;-69
2021/07/23 01:25:39;;;;;;;19.90;16.25;;;;;;;;;;5092698;28;20024;-69
2021/07/23 01:28:05;;;;;;;19.95;15.95;;;;;;;;;;5092401;28;20046;-69
2021/07/23 01:30:33;;;;;;;21.60;16.67;;;;;;;;;;5093601;28;20020;-69
2021/07/23 01:32:58;;;;;;;16.48;13.35;;;;;;;;;;5093023;28;20023;-68
2021/07/23 01:35:23;;;;;;;15.95;14.15;;;;;;;;;;5090213;28;20020;-69
2021/07/23 01:37:48;;;;;;;15.43;12.88;;;;;;;;;;5092501;28;20035;-69
2021/07/23 01:40:14;;;;;;;17.33;13.57;;;;;;;;;;5092935;28;20016;-70
2021/07/23 01:42:40;;;;;;;18.90;13.88;;;;;;;;;;5093130;28;20027;-69
2021/07/23 01:45:05;;;;;;;15.13;13.23;;;;;;;;;;5089183;28;20016;-69
2021/07/23 01:47:31;;;;;;;16.08;13.52;;;;;;;;;;5092410;28;20099;-69
2021/07/23 01:49:56;;;;;;;16.90;14.02;;;;;;;;;;5092761;28;20028;-69
2021/07/23 01:52:21;;;;;;;16.02;14.00;;;;;;;;;;5082643;28;20479;-69
2021/07/23 01:54:47;;;;;;;17.05;13.75;;;;;;;;;;5085050;28;20031;-69
2021/07/23 01:57:12;;;;;;;16.77;14.25;;;;;;;;;;5092397;28;20016;-69
2021/07/23 01:59:37;;;;;;;20.23;14.85;;;;;;;;;;5092368;28;20020;-69
2021/07/23 02:02:03;;;;;;;16.65;13.70;;;;;;;;;;5092688;28;20035;-69
2021/07/23 02:04:28;;;;;;;18.30;15.05;;;;;;;;;;5089487;28;20043;-67
2021/07/23 02:06:53;;;;;;;17.30;14.57;;;;;;;;;;5092957;28;20062;-70
2021/07/23 02:09:18;;;;;;;18.75;15.05;;;;;;;;;;5092229;28;20536;-69
2021/07/23 02:11:44;;;;;;;19.05;15.48;;;;;;;;;;5092074;28;20095;-70
2021/07/23 02:14:09;;;;;;;18.98;15.15;;;;;;;;;;5088798;28;20031;-70
2021/07/23 02:16:34;;;;;;;18.65;15.18;;;;;;;;;;5092462;28;20024;-70
2021/07/23 02:19:00;;;;;;;18.08;14.13;;;;;;;;;;5092040;28;20481;-69
2021/07/23 02:21:25;;;;;;;17.13;14.75;;;;;;;;;;5092498;28;20024;-70
2021/07/23 02:23:50;;;;;;;18.88;15.15;;;;;;;;;;5089156;28;20023;-70
2021/07/23 02:26:16;;;;;;;18.35;15.57;;;;;;;;;;5092463;28;20016;-71
2021/07/23 02:28:41;;;;;;;20.08;15.93;;;;;;;;;;5092149;28;20383;-70
2021/07/23 02:31:06;;;;;;;17.50;14.05;;;;;;;;;;5091980;28;20028;-70
2021/07/23 02:33:32;;;;;;;15.20;13.20;;;;;;;;;;5088798;28;20086;-70
2021/07/23 02:35:57;;;;;;;15.60;13.65;;;;;;;;;;5092524;28;20379;-70
2021/07/23 02:38:22;;;;;;;17.67;15.25;;;;;;;;;;5090986;28;20020;-70
2021/07/23 02:40:47;;;;;;;16.55;14.52;;;;;;;;;;5090877;28;20038;-71
2021/07/23 02:43:12;;;;;;;14.82;13.23;;;;;;;;;;5090009;28;20024;-71
2021/07/23 02:45:38;;;;;;;15.43;13.57;;;;;;;;;;5091304;28;20020;-70
2021/07/23 02:48:03;;;;;;;15.52;12.77;;;;;;;;;;5091440;28;20032;-69
2021/07/23 02:50:28;;;;;;;14.48;11.98;;;;;;;;;;5094401;28;20031;-69
2021/07/23 02:52:54;;;;;;;15.85;13.05;;;;;;;;;;5100015;28;20050;-70
2021/07/23 02:55:19;;;;;;;15.57;13.43;;;;;;;;;;5093194;28;20031;-70
2021/07/23 02:57:45;;;;;;;14.05;11.80;;;;;;;;;;5095529;28;20020;-71
2021/07/23 03:00:10;;;;;;;15.88;12.65;;;;;;;;;;5095568;28;20410;-70
2021/07/23 03:02:35;;;;;;;14.55;12.70;;;;;;;;;;5095316;28;20074;-71
2021/07/23 03:05:00;;;;;;;15.25;12.48;;;;;;;;;;5092839;28;20042;-70
2021/07/23 03:07:26;;;;;;;15.20;13.02;;;;;;;;;;5096209;28;20069;-70
2021/07/23 03:09:51;;;;;;;13.95;12.55;;;;;;;;;;5095310;28;20085;-70
2021/07/23 03:12:16;;;;;;;13.93;11.93;;;;;;;;;;5095147;28;20276;-70
2021/07/23 03:14:42;;;;;;;13.27;11.98;;;;;;;;;;5092911;28;20016;-70
2021/07/23 03:17:09;;;;;;;15.52;12.45;;;;;;;;;;5095389;28;20395;-69
2021/07/23 03:19:34;;;;;;;14.90;12.52;;;;;;;;;;5095488;28;21255;-69
2021/07/23 03:22:00;;;;;;;14.90;12.63;;;;;;;;;;5095563;28;20360;-70
2021/07/23 03:24:25;;;;;;;14.50;12.50;;;;;;;;;;5092872;28;20031;-71
2021/07/23 03:26:50;;;;;;;14.52;12.73;;;;;;;;;;5095155;28;20020;-70
2021/07/23 03:29:15;;;;;;;13.63;12.23;;;;;;;;;;5089716;28;20024;-68
2021/07/23 03:31:41;;;;;;;13.63;12.23;;;;;;;;;;5075768;28;20112;-70
2021/07/23 03:34:06;;;;;;;13.60;12.20;;;;;;;;;;5072401;28;20016;-71
2021/07/23 03:36:31;;;;;;;15.93;13.02;;;;;;;;;;5090550;28;20031;-71
2021/07/23 03:38:56;;;;;;;15.60;13.05;;;;;;;;;;5095536;28;20376;-70
2021/07/23 03:41:21;;;;;;;14.52;12.85;;;;;;;;;;5095036;28;20066;-70
2021/07/23 03:43:47;;;;;;;13.90;12.18;;;;;;;;;;5092307;28;20047;-70
2021/07/23 03:46:12;;;;;;;14.25;12.75;;;;;;;;;;5094783;28;20020;-69
2021/07/23 03:48:37;;;;;;;15.77;12.23;;;;;;;;;;5095143;28;20020;-69
2021/07/23 03:51:02;;;;;;;15.32;12.73;;;;;;;;;;5094616;28;20016;-69
2021/07/23 03:53:27;;;;;;;15.18;13.30;;;;;;;;;;5091266;28;20458;-71
2021/07/23 03:55:53;;;;;;;14.73;12.65;;;;;;;;;;5093826;28;20030;-70
2021/07/23 03:58:18;;;;;;;16.10;12.50;;;;;;;;;;5093624;28;20471;-70
2021/07/23 04:00:43;;;;;;;15.93;13.40;;;;;;;;;;5092535;28;20154;-70
2021/07/23 04:03:08;;;;;;;14.15;12.75;;;;;;;;;;5092421;28;20024;-70
2021/07/23 04:05:34;;;;;;;15.20;12.45;;;;;;;;;;5092320;28;20020;-69
2021/07/23 04:07:59;;;;;;;13.55;12.15;;;;;;;;;;5092953;28;20114;-68
2021/07/23 04:10:27;;;;;;;15.20;12.80;;;;;;;;;;5092257;28;20016;-71
2021/07/23 04:12:52;;;;;;;13.88;12.13;;;;;;;;;;5093634;28;20540;-71
2021/07/23 04:15:18;;;;;;;13.60;11.65;;;;;;;;;;5089710;28;20058;-70
2021/07/23 04:17:43;;;;;;;12.63;11.32;;;;;;;;;;5093533;28;20050;-70
2021/07/23 04:20:09;;;;;;;15.15;12.85;;;;;;;;;;5092429;28;20459;-69
2021/07/23 04:22:34;;;;;;;13.65;12.13;;;;;;;;;;5093455;28;20030;-70
2021/07/23 04:24:59;;;;;;;14.43;12.93;;;;;;;;;;5089653;28;20024;-70
2021/07/23 04:27:25;;;;;;;15.25;12.77;;;;;;;;;;5093197;28;20051;-70
2021/07/23 04:29:50;;;;;;;15.18;12.70;;;;;;;;;;5085236;28;20069;-71
2021/07/23 04:32:15;;;;;;;14.68;12.48;;;;;;;;;;5093356;28;20028;-70
2021/07/23 04:34:41;;;;;;;14.75;13.07;;;;;;;;;;5090029;28;20031;-70
2021/07/23 04:37:06;;;;;;;15.30;12.82;;;;;;;;;;5092574;28;20020;-70
2021/07/23 04:39:31;;;;;;;13.75;12.27;;;;;;;;;;5093077;28;20163;-70
2021/07/23 04:41:56;;;;;;;14.23;12.05;;;;;;;;;;5091607;28;20039;-70
2021/07/23 04:44:22;;;;;;;18.20;12.40;;;;;;;;;;5089942;28;20035;-70
2021/07/23 04:46:47;;;;;;;14.13;12.73;;;;;;;;;;5092963;28;20027;-71
2021/07/23 04:49:12;;;;;;;12.88;11.57;;;;;;;;;;5091834;28;20028;-69
2021/07/23 04:51:37;;;;;;;14.75;12.55;;;;;;;;;;5091274;28;20054;-69
2021/07/23 04:54:02;;;;;;;15.87;13.03;;;;;;;;;;5051695;28;1101155;-69
2021/07/23 04:56:28;;;;;;;15.82;13.15;;;;;;;;;;5093376;28;20323;-70
2021/07/23 04:58:53;;;;;;;17.42;11.65;;;;;;;;;;5093288;28;20107;-71
2021/07/23 05:01:18;;;;;;;15.95;12.77;;;;;;;;;;5092934;28;20012;-72
2021/07/23 05:03:43;;;;;;;16.45;12.70;;;;;;;;;;5090468;28;20030;-69
2021/07/23 05:06:09;;;;;;;14.60;12.13;;;;;;;;;;5092489;28;20017;-71
2021/07/23 05:08:35;;;;;;;13.65;12.18;;;;;;;;;;5092918;28;20032;-67
2021/07/23 05:11:01;;;;;;;17.08;12.85;;;;;;;;;;5092008;28;20020;-64
2021/07/23 05:13:26;;;;;;;14.10;12.70;;;;;;;;;;5088287;28;20439;-65
2021/07/23 05:15:53;;;;;;;16.83;12.93;;;;;;;;;;5092802;28;20478;-65
2021/07/23 05:18:19;;;;;;;15.70;13.02;;;;;;;;;;5093105;28;20020;-67
2021/07/23 05:20:44;;;;;;;15.23;12.18;;;;;;;;;;5088603;28;20017;-66
2021/07/23 05:23:09;;;;;;;13.88;12.48;;;;;;;;;;5081627;28;20035;-66
2021/07/23 05:25:35;;;;;;;14.35;11.75;;;;;;;;;;5090567;28;20380;-64
2021/07/23 05:28:01;;;;;;;15.63;11.68;;;;;;;;;;5085925;28;20024;-66
2021/07/23 05:30:26;;;;;;;15.02;12.35;;;;;;;;;;5073039;28;20112;-67
2021/07/23 05:32:51;;;;;;;14.40;12.05;;;;;;;;;;5088984;28;20044;-68
2021/07/23 05:35:17;;;;;;;16.02;12.45;;;;;;;;;;5079693;28;20027;-68
2021/07/23 05:37:42;;;;;;;16.15;12.65;;;;;;;;;;5091307;28;20420;-68
2021/07/23 05:40:07;;;;;;;14.68;11.82;;;;;;;;;;5085901;28;20020;-69
2021/07/23 05:42:33;;;;;;;14.02;11.45;;;;;;;;;;5091916;28;20050;-69
2021/07/23 05:44:58;;;;;;;16.88;13.23;;;;;;;;;;5074127;28;20460;-68
2021/07/23 05:47:23;;;;;;;13.23;11.82;;;;;;;;;;5085478;28;20027;-68
2021/07/23 05:49:49;;;;;;;13.90;11.98;;;;;;;;;;5091818;28;20020;-68
2021/07/23 05:52:14;;;;;;;15.45;11.63;;;;;;;;;;5091620;28;20031;-68
2021/07/23 05:54:39;;;;;;;14.10;11.32;;;;;;;;;;5073338;28;20035;-68
2021/07/23 05:57:04;;;;;;;14.93;12.35;;;;;;;;;;5090586;28;20422;-70
2021/07/23 05:59:30;;;;;;;14.27;11.93;;;;;;;;;;5087229;28;20458;-70
2021/07/23 06:01:55;;;;;;;13.60;12.13;;;;;;;;;;5091767;28;20024;-68
2021/07/23 06:04:21;;;;;;;12.90;11.55;;;;;;;;;;5081050;28;20447;-68
2021/07/23 06:06:46;;;;;;;14.90;12.35;;;;;;;;;;5090065;28;20024;-68
2021/07/23 06:09:12;;;;;;;14.25;11.43;;;;;;;;;;5091794;28;20455;-69
2021/07/23 06:11:38;;;;;;;14.27;11.80;;;;;;;;;;5091676;28;20031;-70
2021/07/23 06:14:04;;;;;;;11.80;10.57;;;;;;;;;;5087711;28;20026;-69
2021/07/23 06:16:29;;;;;;;15.43;11.43;;;;;;;;;;5092327;28;20502;-69
2021/07/23 06:18:55;;;;;;;13.70;11.10;;;;;;;;;;5092817;28;20019;-71
2021/07/23 06:21:21;;;;;;;13.45;10.80;;;;;;;;;;5092275;28;20023;-70
2021/07/23 06:23:46;;;;;;;12.38;11.05;;;;;;;;;;5087957;28;20020;-68
2021/07/23 06:26:11;;;;;;;13.40;11.15;;;;;;;;;;5090683;28;20027;-66
2021/07/23 06:28:37;;;;;;;12.40;11.10;;;;;;;;;;5087173;28;20475;-67
2021/07/23 06:31:04;;;;;;;12.70;11.40;;;;;;;;;;5091732;28;20382;-67
2021/07/23 06:33:29;;;;;;;12.18;10.88;;;;;;;;;;5088293;28;20503;-67
2021/07/23 06:35:55;;;;;;;12.00;10.70;;;;;;;;;;5091291;28;20055;-67
2021/07/23 06:38:20;;;;;;;13.32;12.02;;;;;;;;;;5084791;28;20473;-67
2021/07/23 06:40:45;;;;;;;12.55;11.27;;;;;;;;;;5088479;28;20026;-67
2021/07/23 06:43:10;;;;;;;12.48;10.63;;;;;;;;;;5088664;28;20107;-67
2021/07/23 06:45:36;;;;;;;14.55;10.80;;;;;;;;;;5090195;28;20102;-67
2021/07/23 06:48:01;;;;;;;11.57;9.98;;;;;;;;;;5090569;28;20031;-66
2021/07/23 06:50:27;;;;;;;12.82;11.07;;;;;;;;;;5091541;28;20086;-66
2021/07/23 06:52:52;;;;;;;16.35;11.65;;;;;;;;;;5090197;28;20036;-67
2021/07/23 06:55:17;;;;;;;13.30;11.23;;;;;;;;;;5088954;28;20052;-66
2021/07/23 06:57:42;;;;;;;13.02;10.82;;;;;;;;;;5091527;28;20024;-67
2021/07/23 07:00:08;;;;;;;14.47;10.67;;;;;;;;;;5091793;28;20048;-66
2021/07/23 07:02:33;;;;;;;14.75;10.70;;;;;;;;;;5090996;28;20361;-66
2021/07/23 07:04:58;;;;;;;14.27;11.00;;;;;;;;;;5087856;28;20467;-66
2021/07/23 07:07:23;;;;;;;12.68;10.38;;;;;;;;;;5091037;28;20266;-67
2021/07/23 07:09:49;;;;;;;12.45;11.15;;;;;;;;;;5091379;28;20040;-67
2021/07/23 07:12:14;;;;;;;11.90;10.70;;;;;;;;;;5085988;28;20019;-66
2021/07/23 07:14:39;;;;;;;12.57;10.80;;;;;;;;;;5084358;28;20024;-67
2021/07/23 07:17:04;;;;;;;12.88;11.07;;;;;;;;;;5090637;28;20020;-67
2021/07/23 07:19:30;;;;;;;12.80;11.23;;;;;;;;;;5091219;28;20070;-66
2021/07/23 07:21:55;;;;;;;13.13;10.75;;;;;;;;;;5085051;28;20482;-67
2021/07/23 07:24:20;;;;;;;12.45;11.07;;;;;;;;;;5082839;28;20028;-66
2021/07/23 07:26:46;;;;;;;11.98;10.70;;;;;;;;;;5083125;28;20093;-66
2021/07/23 07:29:12;;;;;;;12.55;11.27;;;;;;;;;;5081591;28;20025;-67
2021/07/23 07:31:37;;;;;;;14.50;11.70;;;;;;;;;;5083081;28;20031;-68
2021/07/23 07:34:02;;;;;;;12.80;11.17;;;;;;;;;;5079400;28;20483;-66
2021/07/23 07:36:28;;;;;;;13.85;11.00;;;;;;;;;;5090286;28;20282;-68
2021/07/23 07:39:04;;;;;;;14.07;10.88;;;;;;;;;;5093812;28;20012;-68
2021/07/23 07:41:36;;;;;;;12.20;10.40;;;;;;;;;;5095033;28;20039;-69
2021/07/23 07:44:01;;;;;;;14.25;11.07;;;;;;;;;;5088009;28;20012;-68
2021/07/23 07:46:26;;;;;;;13.80;10.85;;;;;;;;;;5092678;28;20427;-68
2021/07/23 07:48:51;;;;;;;13.25;11.10;;;;;;;;;;5094213;28;20024;-68
2021/07/23 07:51:17;;;;;;;12.85;10.43;;;;;;;;;;5093754;28;20115;-68
2021/07/23 07:53:43;;;;;;;12.68;10.07;;;;;;;;;;5082985;28;20067;-68
2021/07/23 07:56:12;;;;;;;13.40;11.00;;;;;;;;;;5092755;28;20390;-69
2021/07/23 07:58:37;;;;;;;13.15;10.48;;;;;;;;;;5093988;28;20042;-69
2021/07/23 08:01:06;;;;;;;15.07;11.07;;;;;;;;;;5092375;28;20107;-68
2021/07/23 08:03:31;;;;;;;12.07;10.77;;;;;;;;;;5091039;28;20062;-68
2021/07/23 08:06:01;;;;;;;12.63;10.50;;;;;;;;;;5089974;28;20059;-69
2021/07/23 08:08:27;;;;;;;16.17;10.55;;;;;;;;;;5092568;28;20020;-69
2021/07/23 08:10:52;;;;;;;12.13;10.13;;;;;;;;;;5093342;28;20372;-69
2021/07/23 08:13:17;;;;;;;11.32;9.15;;;;;;;;;;5090422;28;20024;-69
2021/07/23 08:15:44;;;;;;;12.95;9.43;;;;;;;;;;5091943;28;20394;-69
2021/07/23 08:18:09;;;;;;;14.43;9.68;;;;;;;;;;5092621;28;20016;-69
2021/07/23 08:20:34;;;;;;;12.98;9.95;;;;;;;;;;5093431;28;20027;-69
2021/07/23 08:22:59;;;;;;;12.23;10.23;;;;;;;;;;5092221;28;20081;-68
2021/07/23 08:25:25;;;;;;;11.23;10.00;;;;;;;;;;5086607;28;20467;-69
2021/07/23 08:27:50;;;;;;;12.20;10.00;;;;;;;;;;5075622;28;20020;-69
2021/07/23 08:30:15;;;;;;;10.13;9.13;;;;;;;;;;5093830;28;20269;-68
2021/07/23 08:32:44;;;;;;;10.55;9.55;;;;;;;;;;5094312;28;20282;-70
2021/07/23 08:35:09;;;;;;;13.30;9.77;;;;;;;;;;5088310;28;20020;-69
2021/07/23 08:37:34;;;;;;;10.15;9.15;;;;;;;;;;5090946;28;20184;-68
2021/07/23 08:40:00;;;;;;;10.63;9.35;;;;;;;;;;5092347;28;20020;-68
2021/07/23 08:42:29;;;;;;;10.57;9.35;;;;;;;;;;5094079;28;20044;-68
2021/07/23 08:44:55;;;;;;;12.23;9.32;;;;;;;;;;5089275;28;20073;-69
2021/07/23 08:47:20;;;;;;;9.80;8.80;;;;;;;;;;5091255;28;20028;-68
2021/07/23 08:49:46;;;;;;;9.90;8.57;;;;;;;;;;5093910;28;20027;-71
2021/07/23 08:52:11;;;;;;;10.00;8.88;;;;;;;;;;5092016;28;20030;-67
2021/07/23 08:54:37;;;;;;;10.43;9.43;;;;;;;;;;5088273;28;20024;-69
2021/07/23 08:57:03;;;;;;;14.63;9.43;;;;;;;;;;5089947;28;20443;-69
2021/07/23 08:59:30;;;;;;;9.77;8.63;;;;;;;;;;5092343;28;20451;-68
2021/07/23 09:01:59;;;;;;;9.75;8.75;;;;;;;;;;5093081;28;20383;-69
2021/07/23 09:04:28;;;;;;;9.95;8.90;;;;;;;;;;5089284;28;20047;-69
2021/07/23 09:07:12;;;;;;;10.20;8.75;;;;;;;;;;5087739;28;20020;-69
2021/07/23 09:09:37;;;;;;;10.23;8.52;;;;;;;;;;5088781;28;20024;-69
2021/07/23 09:12:02;;;;;;;9.63;8.63;;;;;;;;;;5088895;28;20030;-69
2021/07/23 09:14:28;;;;;;;9.95;8.93;;;;;;;;;;5086808;28;20008;-69
2021/07/23 09:17:01;;;;;;;9.45;8.43;;;;;;;;;;5083312;28;20405;-68
2021/07/23 09:19:26;;;;;;;10.30;8.93;;;;;;;;;;5085630;28;20013;-68
2021/07/23 09:21:58;;;;;;;10.33;9.27;;;;;;;;;;5088960;28;20390;-68
2021/07/23 09:24:24;;;;;;;9.48;8.02;;;;;;;;;;5086393;28;20818;-69
2021/07/23 09:26:49;;;;;;;9.18;8.27;;;;;;;;;;5091843;28;20330;-68
2021/07/23 09:29:14;;;;;;;9.73;8.60;;;;;;;;;;5088729;28;20030;-70
2021/07/23 09:31:40;;;;;;;10.43;8.73;;;;;;;;;;5091802;28;20347;-68
2021/07/23 09:34:07;;;;;;;9.15;8.15;;;;;;;;;;5087667;28;20532;-69
2021/07/23 09:36:32;;;;;;;9.38;8.40;;;;;;;;;;5091757;28;20020;-69
2021/07/23 09:39:02;;;;;;;9.07;8.18;;;;;;;;;;5091803;28;20016;-69
2021/07/23 09:41:27;;;;;;;9.80;8.93;;;;;;;;;;5085331;28;20016;-69
2021/07/23 09:43:57;;;;;;;9.18;8.27;;;;;;;;;;5081005;28;20533;-68
2021/07/23 09:46:24;;;;;;;10.05;8.60;;;;;;;;;;5083752;28;20082;-68
2021/07/23 09:48:50;;;;;;;10.15;8.63;;;;;;;;;;5084478;28;20034;-69
2021/07/23 09:51:16;;;;;;;8.90;8.00;;;;;;;;;;5083549;28;20040;-69
2021/07/23 09:53:41;;;;;;;10.07;9.07;;;;;;;;;;5080826;28;20183;-69
2021/07/23 09:56:07;;;;;;;10.75;8.75;;;;;;;;;;5083207;28;20274;-69
2021/07/23 09:58:36;;;;;;;11.18;8.00;;;;;;;;;;5082265;28;20016;-70
2021/07/23 10:01:08;;;;;;;11.27;8.57;;;;;;;;;;5083890;28;20020;-69
2021/07/23 10:03:33;;;;;;;9.80;8.80;;;;;;;;;;5078437;28;20020;-68
2021/07/23 10:06:02;;;;;;;8.68;7.88;;;;;;;;;;5085539;28;20046;-68
2021/07/23 10:08:30;;;;;;;8.52;7.78;;;;;;;;;;5082392;28;20125;-69
2021/07/23 10:10:56;;;;;;;9.43;8.27;;;;;;;;;;5084057;28;20072;-68
2021/07/23 10:13:22;;;;;;;9.38;7.72;;;;;;;;;;5083852;28;20347;-69
2021/07/23 10:15:48;;;;;;;8.23;7.50;;;;;;;;;;5092790;28;20016;-67
2021/07/23 10:18:14;;;;;;;7.82;7.22;;;;;;;;;;5087486;28;20072;-68
2021/07/23 10:20:40;;;;;;;8.93;8.02;;;;;;;;;;5089589;28;20028;-69
2021/07/23 10:23:05;;;;;;;9.50;8.30;;;;;;;;;;5086651;28;20039;-69
2021/07/23 10:25:34;;;;;;;9.20;8.30;;;;;;;;;;5088839;28;20071;-69
2021/07/23 10:27:59;;;;;;;8.95;8.05;;;;;;;;;;5085599;28;20020;-69
2021/07/23 10:30:29;;;;;;;8.90;8.07;;;;;;;;;;5090842;28;20008;-69
2021/07/23 10:32:54;;;;;;;8.30;7.43;;;;;;;;;;5091331;28;20034;-68
2021/07/23 10:35:25;;;;;;;8.93;7.05;;;;;;;;;;5088867;28;20020;-69
2021/07/23 10:37:50;;;;;;;8.68;7.88;;;;;;;;;;5088652;28;20487;-69
2021/07/23 10:40:16;;;;;;;9.55;7.95;;;;;;;;;;5087553;28;20024;-69
2021/07/23 10:42:42;;;;;;;8.98;8.18;;;;;;;;;;5082652;28;20472;-68
2021/07/23 10:45:09;;;;;;;8.80;7.90;;;;;;;;;;5084886;28;20027;-68
2021/07/23 10:47:39;;;;;;;8.65;7.78;;;;;;;;;;5090448;28;20020;-69
2021/07/23 10:50:05;;;;;;;10.30;8.55;;;;;;;;;;5087692;28;20023;-69
2021/07/23 10:52:36;;;;;;;8.95;8.15;;;;;;;;;;5086019;28;20056;-68
2021/07/23 10:55:07;;;;;;;8.77;7.47;;;;;;;;;;5084009;28;20428;-69
2021/07/23 10:57:32;;;;;;;8.07;7.28;;;;;;;;;;5081484;28;20091;-69
2021/07/23 10:59:59;;;;;;;7.87;7.17;;;;;;;;;;5091734;28;20099;-69
2021/07/23 11:02:24;;;;;;;9.30;7.88;;;;;;;;;;5086285;28;20027;-68
2021/07/23 11:04:52;;;;;;;8.83;7.13;;;;;;;;;;5087819;28;20024;-68
2021/07/23 11:07:23;;;;;;;8.18;7.45;;;;;;;;;;5090401;28;20107;-68
2021/07/23 11:09:49;;;;;;;8.25;7.55;;;;;;;;;;5077723;28;20028;-68
2021/07/23 11:12:14;;;;;;;9.02;8.23;;;;;;;;;;5084346;28;20101;-67
2021/07/23 11:14:39;;;;;;;9.57;8.07;;;;;;;;;;5088801;28;20073;-69
2021/07/23 11:17:04;;;;;;;8.90;8.03;;;;;;;;;;5083371;28;20020;-70
2021/07/23 11:19:30;;;;;;;9.03;8.20;;;;;;;;;;5086445;28;20033;-69
2021/07/23 11:21:55;;;;;;;8.83;7.93;;;;;;;;;;5075596;28;20722;-70
2021/07/23 11:24:20;;;;;;;9.10;8.13;;;;;;;;;;5086150;28;20512;-69
2021/07/23 11:26:52;;;;;;;8.95;8.00;;;;;;;;;;5093007;28;20369;-70
2021/07/23 11:29:30;;;;;;;8.07;7.38;;;;;;;;;;5087846;28;20405;-69
2021/07/23 11:32:01;;;;;;;8.98;8.13;;;;;;;;;;5094126;28;20058;-69
2021/07/23 11:34:27;;;;;;;9.43;7.70;;;;;;;;;;5091758;28;20025;-70
2021/07/23 11:36:53;;;;;;;10.20;7.60;;;;;;;;;;5093891;28;20110;-69
2021/07/23 11:39:21;;;;;;;8.63;7.72;;;;;;;;;;5094358;28;20542;-68
2021/07/23 11:42:00;;;;;;;8.55;7.65;;;;;;;;;;5093803;28;20016;-69
2021/07/23 11:44:25;;;;;;;8.40;7.70;;;;;;;;;;5088084;28;20058;-70
2021/07/23 11:46:50;;;;;;;9.98;7.30;;;;;;;;;;5084802;28;20052;-69
2021/07/23 11:49:16;;;;;;;8.25;7.60;;;;;;;;;;5104901;28;20070;-68
2021/07/23 11:51:42;;;;;;;8.00;7.32;;;;;;;;;;5098215;28;20022;-69
2021/07/23 11:54:08;;;;;;;7.78;7.18;;;;;;;;;;5091335;28;20043;-70
2021/07/23 11:56:33;;;;;;;8.00;7.28;;;;;;;;;;5093361;28;20110;-69
2021/07/23 11:58:59;;;;;;;8.13;7.43;;;;;;;;;;5093571;28;20043;-68
2021/07/23 12:01:26;;;;;;;8.05;7.35;;;;;;;;;;5093643;28;20019;-69
2021/07/23 12:03:57;;;;;;;8.05;7.35;;;;;;;;;;5090687;28;20070;-69
2021/07/23 12:06:26;;;;;;;8.00;7.30;;;;;;;;;;5091360;28;20051;-69
2021/07/23 12:08:53;;;;;;;8.10;7.40;;;;;;;;;;5094529;28;20479;-70
2021/07/23 12:11:19;;;;;;;8.40;7.22;;;;;;;;;;5092123;28;20043;-69
2021/07/23 12:13:44;;;;;;;8.73;7.82;;;;;;;;;;5088363;28;20028;-68
2021/07/23 12:16:09;;;;;;;8.60;7.70;;;;;;;;;;5084898;28;20024;-67
2021/07/23 12:18:34;;;;;;;8.00;7.30;;;;;;;;;;5080661;28;20055;-69
2021/07/23 12:21:09;;;;;;;7.97;7.23;;;;;;;;;;5083288;28;20111;-68
2021/07/23 12:23:34;;;;;;;8.50;7.40;;;;;;;;;;5082324;28;20020;-69
2021/07/23 12:26:00;;;;;;;7.63;6.93;;;;;;;;;;5082777;28;20372;-68
2021/07/23 12:28:25;;;;;;;8.27;7.47;;;;;;;;;;5088314;28;20020;-68
2021/07/23 12:30:51;;;;;;;7.70;7.03;;;;;;;;;;5085089;28;20020;-69
2021/07/23 12:33:18;;;;;;;7.55;6.90;;;;;;;;;;5083286;28;20020;-69
2021/07/23 12:35:44;;;;;;;8.00;7.20;;;;;;;;;;5083478;28;20142;-68
2021/07/23 12:38:10;;;;;;;8.98;8.00;;;;;;;;;;5085738;28;20471;-69
2021/07/23 12:41:02;;;;;;;8.70;8.00;;;;;;;;;;5091157;28;20044;-69
2021/07/23 12:43:28;;;;;;;8.25;7.47;;;;;;;;;;5081031;28;20039;-68
2021/07/23 12:45:53;;;;;;;8.15;7.35;;;;;;;;;;5084644;28;20406;-69
2021/07/23 12:48:20;;;;;;;7.40;6.85;;;;;;;;;;5085750;28;20043;-69
2021/07/23 12:50:58;;;;;;;7.45;6.82;;;;;;;;;;5082822;28;20020;-69
2021/07/23 12:53:25;;;;;;;7.97;7.30;;;;;;;;;;5080830;28;20308;-68
2021/07/23 12:55:56;;;;;;;7.47;6.82;;;;;;;;;;5080527;28;20433;-70
2021/07/23 12:58:37;;;;;;;8.27;7.22;;;;;;;;;;5084257;28;20130;-68
2021/07/23 13:01:06;;;;;;;7.60;7.00;;;;;;;;;;5083734;28;20095;-68
2021/07/23 13:03:31;;;;;;;8.63;7.18;;;;;;;;;;5079690;28;20051;-70
2021/07/23 13:05:57;;;;;;;7.27;6.53;;;;;;;;;;5085670;28;20059;-69
2021/07/23 13:08:22;;;;;;;7.87;7.23;;;;;;;;;;5085168;28;20016;-69
2021/07/23 13:10:51;;;;;;;8.40;7.47;;;;;;;;;;5090918;28;20292;-69
2021/07/23 13:13:16;;;;;;;7.70;7.10;;;;;;;;;;5087467;28;20058;-68
2021/07/23 13:15:41;;;;;;;8.03;6.93;;;;;;;;;;5089238;28;20032;-68
2021/07/23 13:18:06;;;;;;;7.97;7.37;;;;;;;;;;5089400;28;20070;-69
2021/07/23 13:20:32;;;;;;;7.77;6.87;;;;;;;;;;5091417;28;20020;-70
2021/07/23 13:22:59;;;;;;;7.90;7.20;;;;;;;;;;5087729;28;20486;-69
2021/07/23 13:25:24;;;;;;;8.30;7.00;;;;;;;;;;5079857;28;20020;-69
2021/07/23 13:27:51;;;;;;;8.13;7.33;;;;;;;;;;5088924;28;20039;-69
2021/07/23 13:30:19;;;;;;;7.65;7.05;;;;;;;;;;5088938;28;20386;-70
2021/07/23 13:32:45;;;;;;;7.90;7.20;;;;;;;;;;5089480;28;20065;-67
2021/07/23 13:35:11;;;;;;;7.25;6.65;;;;;;;;;;5081140;28;20398;-68
2021/07/23 13:37:37;;;;;;;7.23;6.63;;;;;;;;;;5080828;28;20091;-69
2021/07/23 13:40:08;;;;;;;8.43;7.68;;;;;;;;;;5089478;28;20015;-68
2021/07/23 13:42:34;;;;;;;9.63;7.25;;;;;;;;;;5084830;28;20017;-69
2021/07/23 13:44:59;;;;;;;8.05;7.25;;;;;;;;;;5080986;28;20558;-69
2021/07/23 13:47:25;;;;;;;7.50;6.80;;;;;;;;;;5090150;28;20028;-69
2021/07/23 13:49:51;;;;;;;7.57;6.88;;;;;;;;;;5092282;28;20024;-68
2021/07/23 13:52:16;;;;;;;7.90;7.23;;;;;;;;;;5086352;28;20031;-69
2021/07/23 13:54:41;;;;;;;8.23;7.63;;;;;;;;;;5086756;28;20023;-69
2021/07/23 13:57:06;;;;;;;8.20;7.50;;;;;;;;;;5083661;28;20362;-68
2021/07/23 13:59:32;;;;;;;7.65;6.97;;;;;;;;;;5092145;28;20020;-69
2021/07/23 14:01:57;;;;;;;7.93;7.30;;;;;;;;;;5090652;28;20081;-69
2021/07/23 14:04:23;;;;;;;8.55;7.75;;;;;;;;;;5088283;28;20020;-69
2021/07/23 14:06:48;;;;;;;7.47;6.87;;;;;;;;;;5091686;28;20483;-69
2021/07/23 14:09:13;;;;;;;7.63;7.00;;;;;;;;;;5086093;28;20278;-69
2021/07/23 14:11:38;;;;;;;7.47;6.77;;;;;;;;;;5088540;28;20085;-69
2021/07/23 14:14:04;;;;;;;7.60;7.00;;;;;;;;;;5085173;28;20020;-68
2021/07/23 14:16:29;;;;;;;7.82;6.90;;;;;;;;;;5090128;28;20020;-68
2021/07/23 14:18:54;;;;;;;8.13;7.40;;;;;;;;;;5091862;28;20016;-69